createdAt,value
2018-02-12T00:00:53.686Z,97.11
2018-02-12T00:01:53.679Z,96.73
2018-02-12T00:02:53.672Z,96.64
2018-02-12T00:03:53.664Z,96.64
2018-02-12T00:04:53.656Z,96.64
2018-02-12T00:05:53.650Z,96.83
2018-02-12T00:06:53.642Z,96.64
2018-02-12T00:07:53.634Z,96.64
2018-02-12T00:08:53.628Z,97.02
2018-02-12T00:09:53.621Z,96.83
2018-02-12T00:10:53.613Z,96.26
2018-02-12T00:11:53.605Z,96.16
2018-02-12T00:12:53.600Z,96.26
2018-02-12T00:13:53.593Z,95.97
2018-02-12T00:14:53.585Z,96.26
2018-02-12T00:15:53.577Z,96.45
2018-02-12T00:16:53.571Z,96.64
2018-02-12T00:17:53.563Z,96.54
2018-02-12T00:18:53.595Z,96.26
2018-02-12T00:19:53.550Z,95.97
2018-02-12T00:20:53.543Z,95.88
2018-02-12T00:21:53.537Z,95.59
2018-02-12T00:22:53.527Z,95.88
2018-02-12T00:23:53.521Z,96.35
2018-02-12T00:24:53.514Z,95.40
2018-02-12T00:25:53.507Z,95.40
2018-02-12T00:26:53.499Z,95.50
2018-02-12T00:27:53.492Z,95.31
2018-02-12T00:28:53.530Z,95.12
2018-02-12T00:29:53.478Z,95.03
2018-02-12T00:30:53.470Z,95.59
2018-02-12T00:31:53.464Z,95.59
2018-02-12T00:32:53.457Z,95.78
2018-02-12T00:33:53.450Z,95.83
2018-02-12T00:34:53.442Z,95.78
2018-02-12T00:35:53.435Z,95.93
2018-02-12T00:36:53.430Z,95.36
2018-02-12T00:37:53.423Z,95.07
2018-02-12T00:38:53.416Z,94.70
2018-02-12T00:39:53.409Z,93.94
2018-02-12T00:40:53.403Z,93.37
2018-02-12T00:41:53.395Z,93.46
2018-02-12T00:42:53.387Z,93.56
2018-02-12T00:43:53.382Z,94.23
2018-02-12T00:44:53.379Z,94.23
2018-02-12T00:45:53.368Z,94.42
2018-02-12T00:46:53.360Z,94.04
2018-02-12T00:47:53.353Z,94.70
2018-02-12T00:48:53.347Z,95.07
2018-02-12T00:49:53.340Z,95.07
2018-02-12T00:50:53.333Z,95.07
2018-02-12T00:51:53.326Z,94.89
2018-02-12T00:52:53.321Z,94.89
2018-02-12T00:53:53.315Z,94.79
2018-02-12T00:54:53.306Z,95.45
2018-02-12T00:55:53.300Z,95.45
2018-02-12T00:56:53.293Z,94.51
2018-02-12T00:57:53.287Z,94.32
2018-02-12T00:58:53.280Z,94.13
2018-02-12T00:59:53.274Z,94.51
2018-02-12T01:00:53.267Z,95.07
2018-02-12T01:01:53.262Z,94.98
2018-02-12T01:02:53.255Z,94.93
2018-02-12T01:03:53.247Z,94.74
2018-02-12T01:04:53.241Z,94.93
2018-02-12T01:05:53.235Z,95.69
2018-02-12T01:06:53.227Z,95.97
2018-02-12T01:07:53.220Z,95.26
2018-02-12T01:08:53.215Z,94.27
2018-02-12T01:09:53.208Z,94.46
2018-02-12T01:10:53.200Z,94.37
2018-02-12T01:11:53.194Z,94.56
2018-02-12T01:12:53.186Z,94.60
2018-02-12T01:13:53.179Z,94.89
2018-02-12T01:14:53.173Z,94.74
2018-02-12T01:15:53.166Z,94.93
2018-02-12T01:16:53.159Z,94.98
2018-02-12T01:17:53.154Z,94.79
2018-02-12T01:18:53.147Z,94.32
2018-02-12T01:19:53.140Z,93.94
2018-02-12T01:20:53.133Z,94.04
2018-02-12T01:21:53.127Z,94.32
2018-02-12T01:22:53.120Z,94.70
2018-02-12T01:23:53.113Z,94.04
2018-02-12T01:24:53.106Z,94.23
2018-02-12T01:25:53.101Z,94.04
2018-02-12T01:26:53.093Z,94.13
2018-02-12T01:27:53.087Z,94.32
2018-02-12T01:28:53.080Z,94.74
2018-02-12T01:29:53.074Z,95.21
2018-02-12T01:30:53.066Z,95.12
2018-02-12T01:31:53.062Z,94.93
2018-02-12T01:32:53.054Z,95.31
2018-02-12T01:33:53.048Z,95.40
2018-02-12T01:34:53.040Z,95.78
2018-02-12T01:35:53.033Z,96.07
2018-02-12T01:36:53.027Z,95.78
2018-02-12T01:37:53.022Z,95.88
2018-02-12T01:38:53.014Z,95.40
2018-02-12T01:39:53.007Z,95.78
2018-02-12T01:41:53.039Z,95.59
2018-02-12T01:42:52.988Z,95.12
2018-02-12T01:43:52.980Z,95.03
2018-02-12T01:44:52.975Z,95.03
2018-02-12T01:45:52.970Z,94.84
2018-02-12T01:46:52.966Z,94.70
2018-02-12T01:47:52.955Z,94.74
2018-02-12T01:48:52.948Z,95.21
2018-02-12T01:49:52.942Z,94.84
2018-02-12T01:50:52.936Z,95.40
2018-02-12T01:51:52.928Z,95.59
2018-02-12T01:52:52.921Z,95.97
2018-02-12T01:53:52.915Z,95.59
2018-02-12T01:54:52.906Z,95.69
2018-02-12T01:55:52.900Z,95.88
2018-02-12T01:56:52.894Z,94.84
2018-02-12T01:57:52.889Z,94.93
2018-02-12T01:58:52.882Z,95.88
2018-02-12T01:59:52.875Z,95.97
2018-02-12T02:00:52.869Z,95.69
2018-02-12T02:01:52.867Z,95.69
2018-02-12T02:02:52.893Z,95.59
2018-02-12T02:03:52.849Z,95.69
2018-02-12T02:04:52.842Z,96.26
2018-02-12T02:05:52.835Z,96.64
2018-02-12T02:06:52.828Z,96.64
2018-02-12T02:07:52.821Z,97.02
2018-02-12T02:08:52.815Z,97.02
2018-02-12T02:09:52.809Z,96.92
2018-02-12T02:10:52.801Z,96.64
2018-02-12T02:11:52.794Z,96.64
2018-02-12T02:12:52.788Z,96.07
2018-02-12T02:13:52.783Z,96.26
2018-02-12T02:14:52.774Z,96.54
2018-02-12T02:15:52.768Z,96.83
2018-02-12T02:16:52.763Z,96.83
2018-02-12T02:17:52.756Z,96.45
2018-02-12T02:18:52.748Z,96.92
2018-02-12T02:19:52.742Z,97.02
2018-02-12T02:20:52.735Z,97.11
2018-02-12T02:21:52.728Z,96.73
2018-02-12T02:22:52.721Z,96.73
2018-02-12T02:23:52.715Z,97.39
2018-02-12T02:24:52.709Z,97.30
2018-02-12T02:25:52.703Z,97.11
2018-02-12T02:26:52.694Z,97.39
2018-02-12T02:27:52.687Z,97.30
2018-02-12T02:28:52.681Z,96.92
2018-02-12T02:29:52.679Z,97.11
2018-02-12T02:30:52.667Z,97.30
2018-02-12T02:31:52.660Z,97.11
2018-02-12T02:32:52.654Z,97.30
2018-02-12T02:33:52.649Z,97.68
2018-02-12T02:34:52.640Z,97.58
2018-02-12T02:35:52.633Z,98.34
2018-02-12T02:36:52.627Z,97.96
2018-02-12T02:37:52.621Z,98.25
2018-02-12T02:38:52.613Z,98.53
2018-02-12T02:39:52.606Z,98.25
2018-02-12T02:40:52.600Z,98.63
2018-02-12T02:41:52.593Z,98.72
2018-02-12T02:42:52.586Z,98.53
2018-02-12T02:43:52.578Z,99.01
2018-02-12T02:44:52.573Z,99.01
2018-02-12T02:45:52.567Z,98.44
2018-02-12T02:46:52.559Z,98.44
2018-02-12T02:47:52.553Z,98.06
2018-02-12T02:48:52.545Z,98.34
2018-02-12T02:49:52.541Z,98.44
2018-02-12T02:50:52.532Z,98.06
2018-02-12T02:51:52.525Z,97.96
2018-02-12T02:52:52.517Z,98.25
2018-02-12T02:53:52.512Z,97.20
2018-02-12T02:54:52.504Z,97.20
2018-02-12T02:55:52.504Z,97.30
2018-02-12T02:56:52.490Z,97.02
2018-02-12T02:57:52.484Z,96.83
2018-02-12T02:58:52.476Z,96.73
2018-02-12T02:59:52.470Z,96.73
2018-02-12T03:00:52.463Z,96.54
2018-02-12T03:01:52.456Z,96.26
2018-02-12T03:02:52.448Z,96.64
2018-02-12T03:03:52.441Z,97.20
2018-02-12T03:04:52.434Z,97.30
2018-02-12T03:05:52.429Z,96.64
2018-02-12T03:06:52.421Z,95.78
2018-02-12T03:07:52.414Z,95.03
2018-02-12T03:08:52.409Z,94.84
2018-02-12T03:09:52.403Z,95.69
2018-02-12T03:10:52.394Z,94.84
2018-02-12T03:11:52.388Z,95.78
2018-02-12T03:12:52.381Z,95.78
2018-02-12T03:13:52.375Z,95.50
2018-02-12T03:14:52.367Z,94.84
2018-02-12T03:15:52.360Z,94.27
2018-02-12T03:16:52.354Z,94.84
2018-02-12T03:17:52.348Z,94.93
2018-02-12T03:18:52.339Z,94.93
2018-02-12T03:19:52.333Z,94.56
2018-02-12T03:20:52.325Z,94.56
2018-02-12T03:21:52.320Z,95.21
2018-02-12T03:22:52.312Z,93.42
2018-02-12T03:23:52.304Z,92.19
2018-02-12T03:24:52.298Z,92.00
2018-02-12T03:25:52.291Z,91.91
2018-02-12T03:26:52.283Z,92.19
2018-02-12T03:27:52.276Z,91.05
2018-02-12T03:28:52.271Z,90.96
2018-02-12T03:29:52.264Z,91.34
2018-02-12T03:30:52.257Z,92.19
2018-02-12T03:31:52.249Z,92.76
2018-02-12T03:32:52.244Z,92.57
2018-02-12T03:33:52.236Z,92.29
2018-02-12T03:34:52.229Z,91.81
2018-02-12T03:35:52.222Z,92.19
2018-02-12T03:36:52.216Z,92.10
2018-02-12T03:37:52.209Z,92.19
2018-02-12T03:38:52.201Z,91.15
2018-02-12T03:39:52.194Z,90.96
2018-02-12T03:40:52.187Z,90.86
2018-02-12T03:41:52.181Z,90.11
2018-02-12T03:42:52.173Z,89.82
2018-02-12T03:43:52.166Z,89.25
2018-02-12T03:44:52.162Z,88.59
2018-02-12T03:45:52.152Z,88.68
2018-02-12T03:46:52.145Z,88.78
2018-02-12T03:47:52.138Z,87.84
2018-02-12T03:48:52.131Z,87.55
2018-02-12T03:49:52.125Z,87.93
2018-02-12T03:50:52.119Z,87.84
2018-02-12T03:51:52.109Z,87.17
2018-02-12T03:52:52.103Z,86.60
2018-02-12T03:53:52.097Z,86.89
2018-02-12T03:54:52.089Z,87.84
2018-02-12T03:55:52.083Z,88.02
2018-02-12T03:56:52.076Z,87.74
2018-02-12T03:57:52.069Z,86.60
2018-02-12T03:58:52.061Z,86.60
2018-02-12T03:59:52.054Z,86.60
2018-02-12T04:00:52.048Z,86.22
2018-02-12T04:01:52.041Z,86.70
2018-02-12T04:02:52.033Z,86.60
2018-02-12T04:03:52.025Z,87.08
2018-02-12T04:04:52.021Z,87.46
2018-02-12T04:05:52.011Z,88.40
2018-02-12T04:06:52.006Z,88.21
2018-02-12T04:07:51.998Z,88.78
2018-02-12T04:08:51.989Z,89.73
2018-02-12T04:09:51.983Z,90.11
2018-02-12T04:10:51.976Z,90.86
2018-02-12T04:11:51.968Z,90.67
2018-02-12T04:12:51.963Z,91.05
2018-02-12T04:13:51.954Z,90.48
2018-02-12T04:14:51.950Z,90.86
2018-02-12T04:15:51.939Z,91.43
2018-02-12T04:16:51.932Z,91.91
2018-02-12T04:17:51.927Z,92.38
2018-02-12T04:18:51.919Z,92.66
2018-02-12T04:19:51.913Z,93.23
2018-02-12T04:20:51.905Z,93.23
2018-02-12T04:21:51.898Z,92.76
2018-02-12T04:22:51.891Z,93.70
2018-02-12T04:23:51.884Z,93.70
2018-02-12T04:24:51.930Z,93.99
2018-02-12T04:25:51.871Z,93.80
2018-02-12T04:26:51.863Z,94.18
2018-02-12T04:27:51.856Z,94.18
2018-02-12T04:28:51.849Z,93.70
2018-02-12T04:29:51.841Z,95.03
2018-02-12T04:30:51.833Z,94.65
2018-02-12T04:31:51.830Z,94.84
2018-02-12T04:32:51.821Z,94.65
2018-02-12T04:33:51.814Z,93.99
2018-02-12T04:34:51.806Z,93.42
2018-02-12T04:35:51.799Z,92.76
2018-02-12T04:36:51.796Z,92.76
2018-02-12T04:37:51.785Z,92.85
2018-02-12T04:38:51.778Z,93.61
2018-02-12T04:39:51.770Z,93.23
2018-02-12T04:40:51.764Z,93.80
2018-02-12T04:41:51.757Z,93.80
2018-02-12T04:42:51.749Z,93.42
2018-02-12T04:43:51.742Z,92.66
2018-02-12T04:44:51.735Z,93.42
2018-02-12T04:45:51.728Z,94.27
2018-02-12T04:46:51.721Z,94.46
2018-02-12T04:47:51.716Z,94.18
2018-02-12T04:48:51.709Z,93.99
2018-02-12T04:49:51.703Z,94.08
2018-02-12T04:50:51.692Z,94.65
2018-02-12T04:51:51.687Z,95.12
2018-02-12T04:52:51.680Z,94.93
2018-02-12T04:53:51.672Z,95.12
2018-02-12T04:54:51.666Z,94.93
2018-02-12T04:55:51.658Z,95.03
2018-02-12T04:56:51.653Z,93.70
2018-02-12T04:57:51.644Z,94.08
2018-02-12T04:58:51.638Z,94.46
2018-02-12T04:59:51.631Z,94.74
2018-02-12T05:00:51.624Z,94.93
2018-02-12T05:01:51.619Z,94.46
2018-02-12T05:02:51.610Z,94.56
2018-02-12T05:03:51.602Z,94.84
2018-02-12T05:04:51.596Z,95.40
2018-02-12T05:05:51.590Z,96.26
2018-02-12T05:06:51.581Z,96.26
2018-02-12T05:07:51.574Z,96.07
2018-02-12T05:08:51.567Z,96.26
2018-02-12T05:09:51.561Z,96.26
2018-02-12T05:10:51.553Z,95.88
2018-02-12T05:11:51.549Z,95.31
2018-02-12T05:12:51.540Z,95.03
2018-02-12T05:13:51.533Z,94.65
2018-02-12T05:14:51.526Z,94.27
2018-02-12T05:15:51.520Z,94.37
2018-02-12T05:16:51.514Z,94.56
2018-02-12T05:17:51.519Z,94.56
2018-02-12T05:18:51.499Z,95.69
2018-02-12T05:19:51.492Z,95.78
2018-02-12T05:20:51.485Z,95.69
2018-02-12T05:21:51.483Z,96.26
2018-02-12T05:22:51.471Z,96.45
2018-02-12T05:23:51.463Z,95.88
2018-02-12T05:24:51.458Z,96.26
2018-02-12T05:25:51.451Z,95.88
2018-02-12T05:26:51.443Z,95.78
2018-02-12T05:27:51.436Z,95.21
2018-02-12T05:28:51.429Z,94.84
2018-02-12T05:29:51.423Z,94.93
2018-02-12T05:30:51.415Z,94.84
2018-02-12T05:31:51.407Z,94.93
2018-02-12T05:32:51.402Z,94.65
2018-02-12T05:33:51.395Z,95.03
2018-02-12T05:34:51.387Z,95.59
2018-02-12T05:35:51.380Z,95.88
2018-02-12T05:36:51.373Z,95.88
2018-02-12T05:37:51.367Z,96.07
2018-02-12T05:38:51.360Z,96.26
2018-02-12T05:39:51.353Z,96.26
2018-02-12T05:40:51.346Z,96.45
2018-02-12T05:41:51.340Z,96.16
2018-02-12T05:42:51.335Z,96.26
2018-02-12T05:43:51.326Z,96.16
2018-02-12T05:44:51.320Z,96.07
2018-02-12T05:45:51.312Z,96.45
2018-02-12T05:46:51.304Z,95.40
2018-02-12T05:47:51.298Z,94.65
2018-02-12T05:48:51.291Z,94.46
2018-02-12T05:49:51.283Z,94.56
2018-02-12T05:50:51.276Z,94.46
2018-02-12T05:51:51.269Z,94.46
2018-02-12T05:52:51.263Z,94.27
2018-02-12T05:53:51.259Z,94.27
2018-02-12T05:54:51.248Z,94.37
2018-02-12T05:55:51.242Z,94.18
2018-02-12T05:56:51.235Z,93.99
2018-02-12T05:57:51.228Z,93.80
2018-02-12T05:58:51.264Z,93.99
2018-02-12T05:59:51.214Z,94.27
2018-02-12T06:00:51.208Z,95.03
2018-02-12T06:01:51.203Z,94.93
2018-02-12T06:02:51.194Z,94.93
2018-02-12T06:03:51.187Z,96.50
2018-02-12T06:04:51.180Z,96.69
2018-02-12T06:05:51.173Z,97.25
2018-02-12T06:06:51.166Z,97.44
2018-02-12T06:07:51.158Z,98.01
2018-02-12T06:08:51.154Z,98.77
2018-02-12T06:09:51.145Z,99.52
2018-02-12T06:10:51.137Z,99.99
2018-02-12T06:11:51.131Z,99.99
2018-02-12T06:12:51.122Z,99.99
2018-02-12T06:13:51.116Z,99.99
2018-02-12T06:14:51.107Z,99.99
2018-02-12T06:15:51.100Z,99.99
2018-02-12T06:16:51.092Z,99.99
2018-02-12T06:17:51.085Z,99.99
2018-02-12T06:18:51.081Z,99.99
2018-02-12T06:19:51.069Z,99.99
2018-02-12T06:20:51.063Z,99.99
2018-02-12T06:21:51.055Z,99.99
2018-02-12T06:22:51.047Z,99.99
2018-02-12T06:23:51.040Z,99.99
2018-02-12T06:24:51.032Z,99.99
2018-02-12T06:25:51.025Z,99.99
2018-02-12T06:26:51.015Z,99.99
2018-02-12T06:27:51.009Z,99.57
2018-02-12T06:28:51.000Z,99.09
2018-02-12T06:29:50.992Z,98.62
2018-02-12T06:30:50.985Z,98.43
2018-02-12T06:31:50.978Z,98.24
2018-02-12T06:32:50.969Z,98.24
2018-02-12T06:33:50.962Z,98.33
2018-02-12T06:34:50.953Z,98.62
2018-02-12T06:35:50.945Z,99.19
2018-02-12T06:36:50.936Z,99.47
2018-02-12T06:37:50.935Z,99.47
2018-02-12T06:38:50.922Z,99.38
2018-02-12T06:39:50.913Z,99.57
2018-02-12T06:40:50.909Z,99.99
2018-02-12T06:41:50.899Z,99.99
2018-02-12T06:42:50.889Z,99.99
2018-02-12T06:43:50.882Z,99.99
2018-02-12T06:44:50.874Z,99.99
2018-02-12T06:45:50.867Z,99.99
2018-02-12T06:46:50.886Z,99.99
2018-02-12T06:47:50.850Z,99.99
2018-02-12T06:48:50.843Z,99.99
2018-02-12T06:49:50.835Z,99.99
2018-02-12T06:50:50.826Z,99.99
2018-02-12T06:51:50.816Z,99.99
2018-02-12T06:52:50.810Z,99.99
2018-02-12T06:53:50.803Z,99.99
2018-02-12T06:54:50.794Z,99.99
2018-02-12T06:55:50.786Z,99.99
2018-02-12T06:56:50.779Z,99.99
2018-02-12T06:57:50.777Z,99.99
2018-02-12T06:58:50.762Z,99.66
2018-02-12T06:59:50.754Z,99.09
2018-02-12T07:00:50.745Z,98.62
2018-02-12T07:01:50.739Z,98.90
2018-02-12T07:02:50.729Z,99.19
2018-02-12T07:03:50.722Z,98.62
2018-02-12T07:04:50.723Z,98.71
2018-02-12T07:05:50.706Z,98.52
2018-02-12T07:06:50.699Z,98.14
2018-02-12T07:07:50.689Z,98.05
2018-02-12T07:08:50.683Z,98.24
2018-02-12T07:09:50.675Z,97.96
2018-02-12T07:10:50.665Z,96.92
2018-02-12T07:11:50.662Z,97.20
2018-02-12T07:12:50.651Z,97.58
2018-02-12T07:13:50.644Z,98.43
2018-02-12T07:14:50.634Z,98.52
2018-02-12T07:15:50.625Z,98.43
2018-02-12T07:16:50.617Z,98.24
2018-02-12T07:17:50.611Z,98.33
2018-02-12T07:18:50.600Z,97.86
2018-02-12T07:19:50.594Z,97.20
2018-02-12T07:20:50.586Z,97.01
2018-02-12T07:21:50.579Z,97.67
2018-02-12T07:22:50.570Z,96.73
2018-02-12T07:23:50.562Z,97.11
2018-02-12T07:24:50.557Z,96.54
2018-02-12T07:25:50.548Z,96.45
2018-02-12T07:26:50.538Z,96.64
2018-02-12T07:27:50.530Z,96.64
2018-02-12T07:28:50.522Z,96.92
2018-02-12T07:29:50.515Z,96.35
2018-02-12T07:30:50.505Z,96.26
2018-02-12T07:31:50.496Z,96.26
2018-02-12T07:32:50.489Z,96.16
2018-02-12T07:33:50.481Z,95.88
2018-02-12T07:34:50.473Z,95.69
2018-02-12T07:35:50.464Z,95.78
2018-02-12T07:36:50.458Z,96.16
2018-02-12T07:37:50.450Z,96.16
2018-02-12T07:38:50.442Z,95.97
2018-02-12T07:39:50.434Z,95.31
2018-02-12T07:40:50.429Z,94.70
2018-02-12T07:41:50.418Z,94.89
2018-02-12T07:42:50.412Z,94.79
2018-02-12T07:43:50.402Z,94.79
2018-02-12T07:44:50.394Z,94.32
2018-02-12T07:45:50.388Z,94.13
2018-02-12T07:46:50.380Z,93.37
2018-02-12T07:47:50.372Z,93.37
2018-02-12T07:48:50.366Z,93.09
2018-02-12T07:49:50.356Z,93.56
2018-02-12T07:50:50.352Z,93.75
2018-02-12T07:51:50.342Z,94.23
2018-02-12T07:52:50.334Z,93.47
2018-02-12T07:53:50.328Z,93.75
2018-02-12T07:54:50.319Z,93.18
2018-02-12T07:55:50.313Z,93.28
2018-02-12T07:56:50.307Z,93.37
2018-02-12T07:57:50.299Z,92.61
2018-02-12T07:58:50.290Z,93.18
2018-02-12T07:59:50.283Z,93.75
2018-02-12T08:00:50.277Z,94.04
2018-02-12T08:01:50.271Z,94.42
2018-02-12T08:02:50.262Z,94.60
2018-02-12T08:03:50.255Z,95.64
2018-02-12T08:04:50.248Z,95.55
2018-02-12T08:05:50.241Z,95.45
2018-02-12T08:06:50.233Z,95.55
2018-02-12T08:07:50.226Z,95.55
2018-02-12T08:08:50.218Z,95.36
2018-02-12T08:09:50.211Z,95.64
2018-02-12T08:10:50.204Z,96.31
2018-02-12T08:11:50.198Z,96.40
2018-02-12T08:12:50.190Z,95.83
2018-02-12T08:13:50.186Z,95.64
2018-02-12T08:14:50.175Z,95.83
2018-02-12T08:15:50.168Z,96.21
2018-02-12T08:16:50.162Z,95.55
2018-02-12T08:17:50.157Z,96.21
2018-02-12T08:18:50.147Z,95.64
2018-02-12T08:19:50.139Z,95.55
2018-02-12T08:20:50.132Z,94.60
2018-02-12T08:21:50.126Z,93.47
2018-02-12T08:22:50.118Z,93.28
2018-02-12T08:23:50.111Z,93.28
2018-02-12T08:24:50.103Z,93.09
2018-02-12T08:25:50.096Z,93.47
2018-02-12T08:26:50.091Z,93.56
2018-02-12T08:27:50.085Z,94.04
2018-02-12T08:28:50.074Z,94.13
2018-02-12T08:29:50.069Z,94.98
2018-02-12T08:30:50.060Z,95.17
2018-02-12T08:31:50.052Z,94.89
2018-02-12T08:32:50.048Z,94.60
2018-02-12T08:33:50.039Z,94.32
2018-02-12T08:34:50.032Z,94.13
2018-02-12T08:35:50.026Z,93.28
2018-02-12T08:36:50.019Z,93.28
2018-02-12T08:37:50.012Z,93.75
2018-02-12T08:38:50.003Z,93.56
2018-02-12T08:39:50.434Z,94.23
2018-02-12T08:40:49.990Z,93.75
2018-02-12T08:41:49.981Z,94.98
2018-02-12T08:42:49.977Z,94.13
2018-02-12T08:43:49.968Z,93.23
2018-02-12T08:44:50.008Z,93.32
2018-02-12T08:45:49.953Z,93.23
2018-02-12T08:46:49.946Z,93.80
2018-02-12T08:47:49.938Z,94.18
2018-02-12T08:48:49.930Z,94.84
2018-02-12T08:49:49.925Z,94.46
2018-02-12T08:50:49.915Z,93.51
2018-02-12T08:51:49.909Z,93.51
2018-02-12T08:52:49.902Z,93.23
2018-02-12T08:53:49.894Z,93.51
2018-02-12T08:54:49.886Z,94.08
2018-02-12T08:55:49.879Z,93.99
2018-02-12T08:56:49.870Z,94.56
2018-02-12T08:57:49.863Z,95.59
2018-02-12T08:58:49.855Z,96.07
2018-02-12T08:59:49.848Z,96.26
2018-02-12T09:00:49.840Z,96.11
2018-02-12T09:01:49.832Z,96.96
2018-02-12T09:02:49.824Z,97.44
2018-02-12T09:03:49.817Z,97.81
2018-02-12T09:04:49.810Z,98.10
2018-02-12T09:05:49.801Z,98.28
2018-02-12T09:06:49.793Z,98.47
2018-02-12T09:07:49.785Z,98.57
2018-02-12T09:08:49.776Z,97.91
2018-02-12T09:09:49.769Z,97.44
2018-02-12T09:10:49.762Z,97.15
2018-02-12T09:11:49.754Z,96.49
2018-02-12T09:12:49.746Z,95.83
2018-02-12T09:13:49.738Z,95.45
2018-02-12T09:14:49.730Z,94.89
2018-02-12T09:15:49.725Z,94.70
2018-02-12T09:16:49.714Z,94.79
2018-02-12T09:17:49.705Z,95.21
2018-02-12T09:18:49.698Z,94.27
2018-02-12T09:19:49.690Z,94.46
2018-02-12T09:20:49.696Z,94.08
2018-02-12T09:21:49.675Z,93.42
2018-02-12T09:22:49.667Z,93.99
2018-02-12T09:23:49.659Z,93.23
2018-02-12T09:24:49.652Z,92.47
2018-02-12T09:25:49.644Z,92.47
2018-02-12T09:26:49.635Z,92.19
2018-02-12T09:27:49.628Z,90.86
2018-02-12T09:28:49.620Z,90.49
2018-02-12T09:29:49.617Z,90.82
2018-02-12T09:30:49.606Z,91.10
2018-02-12T09:31:49.596Z,89.69
2018-02-12T09:32:49.590Z,89.40
2018-02-12T09:33:49.584Z,88.93
2018-02-12T09:34:49.576Z,88.36
2018-02-12T09:35:49.568Z,88.74
2018-02-12T09:36:49.560Z,87.98
2018-02-12T09:37:49.555Z,87.13
2018-02-12T09:38:49.547Z,87.51
2018-02-12T09:39:49.540Z,86.94
2018-02-12T09:40:49.533Z,86.13
2018-02-12T09:41:49.527Z,84.14
2018-02-12T09:42:49.519Z,82.82
2018-02-12T09:43:49.513Z,82.44
2018-02-12T09:44:49.507Z,81.96
2018-02-12T09:45:49.501Z,82.63
2018-02-12T09:46:49.494Z,82.72
2018-02-12T09:47:49.488Z,82.67
2018-02-12T09:48:49.482Z,81.25
2018-02-12T09:49:49.475Z,81.34
2018-02-12T09:50:49.470Z,80.11
2018-02-12T09:51:49.463Z,79.64
2018-02-12T09:52:49.458Z,79.21
2018-02-12T09:53:49.456Z,79.11
2018-02-12T09:54:49.448Z,78.16
2018-02-12T09:55:49.742Z,78.83
2018-02-12T09:56:49.437Z,76.93
2018-02-12T09:57:49.434Z,75.64
2018-02-12T09:58:49.434Z,74.41
2018-02-12T09:59:49.425Z,73.22
2018-02-12T10:00:49.424Z,70.94
2018-02-12T10:01:49.416Z,71.51
2018-02-12T10:02:49.413Z,70.09
2018-02-12T10:03:49.411Z,70.43
2018-02-12T10:04:49.408Z,70.90
2018-02-12T10:05:49.408Z,70.62
2018-02-12T10:06:49.400Z,70.28
2018-02-12T10:07:49.398Z,70.09
2018-02-12T10:08:49.395Z,68.15
2018-02-12T10:09:49.394Z,68.63
2018-02-12T10:10:49.389Z,69.42
2018-02-12T10:11:49.412Z,70.56
2018-02-12T10:12:49.384Z,69.52
2018-02-12T10:13:49.383Z,68.29
2018-02-12T10:14:49.379Z,66.96
2018-02-12T10:15:49.378Z,67.90
2018-02-12T10:16:49.379Z,67.81
2018-02-12T10:17:49.373Z,67.43
2018-02-12T10:18:49.371Z,68.95
2018-02-12T10:19:49.369Z,69.90
2018-02-12T10:20:49.375Z,69.99
2018-02-12T10:21:49.367Z,69.80
2018-02-12T10:22:49.362Z,70.24
2018-02-12T10:23:49.359Z,69.57
2018-02-12T10:24:49.357Z,69.99
2018-02-12T10:25:49.354Z,69.13
2018-02-12T10:26:49.352Z,67.71
2018-02-12T10:27:49.350Z,68.29
2018-02-12T10:28:49.347Z,67.52
2018-02-12T10:29:49.344Z,67.90
2018-02-12T10:30:49.342Z,68.57
2018-02-12T10:31:49.340Z,68.63
2018-02-12T10:32:49.337Z,69.96
2018-02-12T10:33:49.333Z,70.53
2018-02-12T10:34:49.330Z,70.81
2018-02-12T10:35:49.327Z,70.53
2018-02-12T10:36:49.326Z,69.67
2018-02-12T10:37:49.323Z,69.01
2018-02-12T10:38:49.319Z,68.73
2018-02-12T10:39:49.316Z,69.10
2018-02-12T10:40:49.314Z,69.57
2018-02-12T10:41:49.314Z,69.86
2018-02-12T10:42:49.310Z,68.91
2018-02-12T10:43:49.304Z,69.20
2018-02-12T10:44:49.301Z,69.77
2018-02-12T10:45:49.298Z,69.67
2018-02-12T10:46:49.298Z,70.53
2018-02-12T10:47:49.290Z,71.09
2018-02-12T10:48:49.288Z,71.09
2018-02-12T10:49:49.285Z,70.62
2018-02-12T10:50:49.280Z,70.87
2018-02-12T10:51:49.278Z,71.34
2018-02-12T10:52:49.276Z,72.10
2018-02-12T10:53:49.270Z,72.96
2018-02-12T10:54:49.268Z,72.38
2018-02-12T10:55:49.263Z,71.53
2018-02-12T10:56:49.259Z,69.92
2018-02-12T10:57:49.256Z,69.57
2018-02-12T10:58:49.252Z,69.10
2018-02-12T10:59:49.249Z,69.57
2018-02-12T11:00:49.246Z,69.20
2018-02-12T11:01:49.243Z,68.06
2018-02-12T11:02:49.237Z,68.12
2018-02-12T11:03:49.233Z,68.21
2018-02-12T11:04:49.231Z,69.07
2018-02-12T11:05:49.227Z,70.49
2018-02-12T11:06:49.223Z,69.86
2018-02-12T11:07:49.220Z,69.10
2018-02-12T11:08:49.217Z,68.48
2018-02-12T11:09:49.213Z,67.90
2018-02-12T11:10:49.210Z,66.96
2018-02-12T11:11:49.208Z,67.02
2018-02-12T11:12:49.207Z,67.49
2018-02-12T11:13:49.204Z,68.06
2018-02-12T11:14:49.200Z,68.59
2018-02-12T11:15:49.198Z,70.30
2018-02-12T11:16:49.195Z,70.97
2018-02-12T11:17:49.193Z,70.39
2018-02-12T11:18:49.195Z,71.69
2018-02-12T11:19:49.186Z,72.06
2018-02-12T11:20:49.186Z,72.92
2018-02-12T11:21:49.182Z,74.43
2018-02-12T11:22:49.338Z,74.62
2018-02-12T11:23:49.174Z,75.28
2018-02-12T11:24:49.171Z,75.70
2018-02-12T11:25:49.167Z,75.70
2018-02-12T11:26:49.162Z,75.32
2018-02-12T11:27:49.160Z,74.66
2018-02-12T11:28:49.156Z,74.37
2018-02-12T11:29:49.153Z,73.05
2018-02-12T11:30:49.152Z,74.47
2018-02-12T11:31:49.144Z,75.42
2018-02-12T11:32:49.141Z,75.60
2018-02-12T11:33:49.137Z,76.14
2018-02-12T11:34:49.132Z,75.19
2018-02-12T11:35:49.129Z,76.14
2018-02-12T11:36:49.125Z,77.65
2018-02-12T11:37:49.122Z,76.14
2018-02-12T11:38:49.116Z,75.53
2018-02-12T11:39:49.149Z,75.24
2018-02-12T11:40:49.108Z,74.96
2018-02-12T11:41:49.104Z,76.00
2018-02-12T11:42:49.098Z,76.76
2018-02-12T11:43:49.100Z,76.95
2018-02-12T11:44:49.089Z,77.70
2018-02-12T11:45:49.084Z,78.08
2018-02-12T11:46:49.079Z,78.08
2018-02-12T11:47:49.075Z,77.42
2018-02-12T11:48:49.070Z,76.57
2018-02-12T11:49:49.064Z,76.95
2018-02-12T11:50:49.058Z,76.91
2018-02-12T11:51:49.053Z,76.53
2018-02-12T11:52:49.047Z,76.72
2018-02-12T11:53:49.042Z,76.00
2018-02-12T11:54:49.035Z,76.67
2018-02-12T11:55:49.030Z,76.67
2018-02-12T11:56:49.024Z,75.05
2018-02-12T11:57:49.078Z,75.12
2018-02-12T11:58:49.011Z,75.43
2018-02-12T11:59:49.007Z,76.57
2018-02-12T12:00:49.001Z,76.44
2018-02-12T12:01:48.996Z,76.63
2018-02-12T12:02:48.988Z,76.44
2018-02-12T12:03:48.982Z,76.72
2018-02-12T12:04:48.978Z,77.29
2018-02-12T12:05:48.971Z,77.39
2018-02-12T12:06:48.965Z,77.51
2018-02-12T12:07:48.960Z,76.00
2018-02-12T12:08:48.953Z,75.81
2018-02-12T12:09:48.950Z,73.54
2018-02-12T12:10:48.940Z,73.45
2018-02-12T12:11:48.934Z,72.60
2018-02-12T12:12:48.928Z,73.35
2018-02-12T12:13:48.922Z,73.35
2018-02-12T12:14:48.916Z,72.88
2018-02-12T12:15:48.916Z,72.12
2018-02-12T12:16:48.905Z,72.75
2018-02-12T12:17:48.899Z,72.47
2018-02-12T12:18:48.893Z,72.94
2018-02-12T12:19:48.886Z,72.47
2018-02-12T12:20:48.886Z,73.03
2018-02-12T12:21:48.878Z,73.07
2018-02-12T12:22:48.873Z,72.97
2018-02-12T12:23:48.866Z,71.74
2018-02-12T12:24:48.856Z,71.59
2018-02-12T12:25:48.850Z,71.59
2018-02-12T12:26:48.848Z,71.40
2018-02-12T12:27:48.839Z,71.69
2018-02-12T12:28:48.834Z,71.97
2018-02-12T12:29:48.829Z,72.25
2018-02-12T12:30:48.822Z,71.31
2018-02-12T12:31:48.816Z,71.50
2018-02-12T12:32:48.811Z,70.93
2018-02-12T12:33:48.807Z,71.21
2018-02-12T12:34:48.802Z,71.12
2018-02-12T12:35:48.796Z,69.70
2018-02-12T12:36:48.790Z,69.22
2018-02-12T12:37:48.785Z,69.19
2018-02-12T12:38:48.779Z,69.57
2018-02-12T12:39:48.774Z,70.14
2018-02-12T12:40:48.769Z,69.76
2018-02-12T12:41:48.764Z,70.23
2018-02-12T12:42:48.759Z,70.14
2018-02-12T12:43:48.751Z,69.09
2018-02-12T12:44:48.749Z,69.95
2018-02-12T12:45:48.742Z,70.07
2018-02-12T12:46:48.739Z,68.94
2018-02-12T12:47:48.735Z,68.94
2018-02-12T12:48:48.725Z,67.99
2018-02-12T12:49:48.722Z,67.80
2018-02-12T12:50:48.715Z,68.08
2018-02-12T12:51:48.710Z,67.99
2018-02-12T12:52:48.706Z,68.08
2018-02-12T12:53:48.700Z,68.46